• Join FlightAware (Why Join?)
  • Login
  • US Flag 
10:15PM EDT


 

Airport Tracker/Info


-or-


 

Live Flight TrackerFlight Track Log ✈ N350CW ✈ 17-May-2013 ✈ KALB - KPOU

Flight Track Log - Related Links

Times and Time Zones

All times are in EDT time to prevent confusion due to time zone crossing. See the N350CW flight status page for this flight to view local times or setup timezone preferences in your user account.

Time Position Orientation Groundspeed Altitude Reporting Facility
EDT Latitude Longitude Course Direction KTS MPH feet Rate Location/Type
06:08PM 42.7756 -73.8092 183° South 119 137 1,400  Level Boston Center
06:09PM 42.7647 -73.8400 244° Southwest 148 170 2,400 960 Climbing Boston Center
06:10PM 42.7211 -73.8447 185° South 157 181 3,400 900 Climbing Boston Center
06:11PM 42.6794 -73.8436 179° South 154 177 4,300 840 Climbing Boston Center
06:12PM 42.6292 -73.8483 184° South 155 178 5,300 780 Climbing Boston Center
06:13PM 42.7484 -73.8020 183° South  Level Estimated
06:13PM 42.5939 -73.8503 182° South 154 177 6,000  Level Boston Center
06:14PM 42.5458 -73.8492 179° South 159 183 6,600 240 Climbing Boston Center
06:14PM 42.5042 -73.8511 182° South 179 206 6,500  Descending Boston Center
06:16PM 42.4458 -73.8553 183° South 180 207 6,600  Climbing Boston Center
06:16PM 42.4250 -73.8519 173° South 181 208 6,500  Descending Boston Center
06:17PM 42.3936 -73.8542 183° South 178 205 6,600  Climbing Boston Center
06:17PM 42.3708 -73.8564 184° South 181 208 6,500 -120 Descending Boston Center
06:18PM 42.3394 -73.8586 183° South 178 205 6,500  Level Boston Center
06:18PM 42.3250 -73.8553 170° South 195 224 6,500  Level Boston Center
06:19PM 42.2769 -73.8600 184° South 202 232 6,500 -120 Level Boston Center
06:20PM 42.2289 -73.8617 181° South 182 209 6,300 -420 Descending Boston Center
06:21PM 42.1767 -73.8661 184° South 182 209 5,700 -600 Descending Boston Center
06:22PM 42.1206 -73.8647 179° South 192 221 5,100 -600 Descending Boston Center
06:24PM 42.0000 -73.8667 181° South 193 222 3,700 -600 Descending New York TRACON
06:25PM 41.9333 -73.8667 180° South 190 219 3,200 -540 Descending New York TRACON
06:26PM 41.9000 -73.8667 180° South 187 215 2,700 -540 Descending New York TRACON
06:27PM 41.8333 -73.8833 191° South 184 212 2,200 -360 Descending New York TRACON
06:28PM 41.7833 -73.8833 180° South 170 196 2,000 -240 Descending New York TRACON
06:30PM 41.7244 -73.8716 172° South  Level FlightAware Approximate
06:37PM 41.6266 -73.8842 189° South  Level Estimated
06:38PM 41.6266 -73.8842 189° South  Level Estimated